createdAt,value
2022-10-11T00:05:05.254Z,7.15
2022-10-11T00:07:31.761Z,7.18
2022-10-11T00:09:58.343Z,7.16
2022-10-11T00:12:24.837Z,7.14
2022-10-11T00:14:51.301Z,7.14
2022-10-11T00:17:17.889Z,7.12
2022-10-11T00:22:25.426Z,7.07
2022-10-11T00:24:52.973Z,7.03
2022-10-11T00:27:20.035Z,6.99
2022-10-11T00:29:46.541Z,6.99
2022-10-11T00:32:13.010Z,6.95
2022-10-11T00:34:39.535Z,6.93
2022-10-11T00:37:06.028Z,6.90
2022-10-11T00:39:32.625Z,6.89
2022-10-11T00:41:59.290Z,6.87
2022-10-11T00:44:27.569Z,6.85
2022-10-11T00:49:54.469Z,6.84
2022-10-11T00:52:29.946Z,6.83
2022-10-11T00:54:57.468Z,6.82
2022-10-11T00:57:25.462Z,6.77
2022-10-11T00:59:54.404Z,6.75
2022-10-11T01:02:21.803Z,6.71
2022-10-11T01:04:57.317Z,6.68
2022-10-11T01:07:33.585Z,6.65
2022-10-11T01:13:00.506Z,6.60
2022-10-11T01:15:42.627Z,6.59
2022-10-11T01:18:21.412Z,6.54
2022-10-11T01:20:53.963Z,6.54
2022-10-11T01:23:31.753Z,6.51
2022-10-11T01:26:15.031Z,6.51
2022-10-11T01:29:00.205Z,6.51
2022-10-11T01:31:40.687Z,6.44
2022-10-11T01:34:25.597Z,6.40
2022-10-11T01:37:09.980Z,6.36
2022-10-11T01:39:44.986Z,6.32
2022-10-11T01:42:12.366Z,6.28
2022-10-11T01:44:40.926Z,6.23
2022-10-11T01:47:07.886Z,6.19
2022-10-11T01:49:34.372Z,6.17
2022-10-11T01:52:05.268Z,6.14
2022-10-11T01:55:10.498Z,6.12
2022-10-11T01:58:02.302Z,6.05
2022-10-11T02:00:39.447Z,6.05
2022-10-11T02:03:46.115Z,6.03
2022-10-11T02:06:19.831Z,6.00
2022-10-11T02:09:08.579Z,6.02
2022-10-11T02:11:36.039Z,6.00
2022-10-11T02:14:18.635Z,5.97
2022-10-11T02:16:52.551Z,5.93
2022-10-11T02:19:22.069Z,5.89
2022-10-11T02:21:52.910Z,5.85
2022-10-11T02:24:24.921Z,5.82
2022-10-11T02:26:54.620Z,5.80
2022-10-11T02:29:23.197Z,5.78
2022-10-11T02:31:50.483Z,5.76
2022-10-11T02:35:05.560Z,5.70
2022-10-11T02:37:42.500Z,5.67
2022-10-11T02:40:15.099Z,5.64
2022-10-11T02:42:48.919Z,5.65
2022-10-11T02:45:22.792Z,5.64
2022-10-11T02:47:49.351Z,5.59
2022-10-11T02:50:16.319Z,5.58
2022-10-11T02:52:43.051Z,5.57
2022-10-11T02:55:10.571Z,5.56
2022-10-11T02:57:37.063Z,5.55
2022-10-11T03:00:04.612Z,5.55
2022-10-11T03:02:31.116Z,5.52
2022-10-11T03:04:57.799Z,5.51
2022-10-11T03:07:25.716Z,5.49
2022-10-11T03:09:52.643Z,5.48
2022-10-11T03:12:19.120Z,5.48
2022-10-11T03:14:45.835Z,5.49
2022-10-11T03:17:35.235Z,5.48
2022-10-11T03:19:59.306Z,5.49
2022-10-11T03:22:26.151Z,5.50
2022-10-11T03:24:52.631Z,5.49
2022-10-11T03:27:19.921Z,5.48
2022-10-11T03:29:46.438Z,5.49
2022-10-11T03:32:12.915Z,5.51
2022-10-11T03:34:39.370Z,5.54
2022-10-11T03:37:05.878Z,5.57
2022-10-11T03:39:32.580Z,5.60
2022-10-11T03:41:59.310Z,5.62
2022-10-11T03:44:26.441Z,5.65
2022-10-11T03:46:52.929Z,5.67
2022-10-11T03:49:19.914Z,5.71
2022-10-11T03:51:46.564Z,5.76
2022-10-11T03:54:13.165Z,5.82
2022-10-11T03:56:39.701Z,5.91
2022-10-11T03:59:06.175Z,5.94
2022-10-11T04:01:37.620Z,6.00
2022-10-11T04:04:04.991Z,6.06
2022-10-11T04:06:31.904Z,6.09
2022-10-11T04:08:58.549Z,6.15
2022-10-11T04:11:25.553Z,6.16
2022-10-11T04:13:52.052Z,6.21
2022-10-11T04:16:18.559Z,6.26
2022-10-11T04:18:45.104Z,6.29
2022-10-11T04:23:52.062Z,6.41
2022-10-11T04:26:18.507Z,6.49
2022-10-11T04:28:45.227Z,6.53
2022-10-11T04:31:11.825Z,6.57
2022-10-11T04:33:38.288Z,6.57
2022-10-11T04:36:05.319Z,6.58
2022-10-11T04:38:32.310Z,6.59
2022-10-11T04:41:13.653Z,6.63
2022-10-11T04:43:40.229Z,6.65
2022-10-11T04:46:08.176Z,6.68
2022-10-11T04:48:34.907Z,6.71
2022-10-11T04:51:01.406Z,6.74
2022-10-11T04:53:28.095Z,6.79
2022-10-11T04:56:04.195Z,6.80
2022-10-11T04:58:32.721Z,6.84
2022-10-11T05:00:59.321Z,6.86
2022-10-11T05:03:26.503Z,6.89
2022-10-11T05:05:53.542Z,6.91
2022-10-11T05:08:20.542Z,6.92
2022-10-11T05:11:00.280Z,6.91
2022-10-11T05:13:28.212Z,6.91
2022-10-11T05:15:55.008Z,6.96
2022-10-11T05:18:21.858Z,6.90
2022-10-11T05:20:48.505Z,6.85
2022-10-11T05:23:15.425Z,6.83
2022-10-11T05:25:41.998Z,6.78
2022-10-11T05:28:08.650Z,6.73
2022-10-11T05:30:35.224Z,6.70
2022-10-11T05:33:01.685Z,6.68
2022-10-11T05:35:28.195Z,6.66
2022-10-11T05:37:54.654Z,6.64
2022-10-11T05:40:21.177Z,6.63
2022-10-11T05:42:48.456Z,6.60
2022-10-11T05:45:15.015Z,6.60
2022-10-11T05:47:41.532Z,6.58
2022-10-11T05:50:08.375Z,6.58
2022-10-11T05:52:34.919Z,6.54
2022-10-11T05:55:03.251Z,6.55
2022-10-11T05:57:29.757Z,6.55
2022-10-11T05:59:56.659Z,6.53
2022-10-11T06:02:23.152Z,6.56
2022-10-11T06:04:49.620Z,6.55
2022-10-11T06:07:16.223Z,6.54
2022-10-11T06:09:42.833Z,6.56
2022-10-11T06:12:09.326Z,6.59
2022-10-11T06:14:36.103Z,6.62
2022-10-11T06:17:02.653Z,6.64
2022-10-11T06:19:29.128Z,6.69
2022-10-11T06:21:55.652Z,6.73
2022-10-11T06:24:22.327Z,6.77
2022-10-11T06:26:49.353Z,6.83
2022-10-11T06:29:15.973Z,6.90
2022-10-11T06:31:42.515Z,6.98
2022-10-11T06:34:09.091Z,7.05
2022-10-11T06:36:35.641Z,7.12
2022-10-11T06:39:02.265Z,7.20
2022-10-11T06:44:14.156Z,7.39
2022-10-11T06:46:41.396Z,7.52
2022-10-11T06:49:08.185Z,7.67
2022-10-11T06:51:35.898Z,7.76
2022-10-11T06:54:03.458Z,7.89
2022-10-11T06:56:31.119Z,8.03
2022-10-11T06:58:58.896Z,8.20
2022-10-11T07:04:22.621Z,8.68
2022-10-11T07:06:49.155Z,8.93
2022-10-11T07:09:15.626Z,9.22
2022-10-11T07:11:42.202Z,9.44
2022-10-11T07:14:09.681Z,9.82
2022-10-11T07:16:36.723Z,10.12
2022-10-11T07:19:05.595Z,10.24
2022-10-11T07:24:13.990Z,10.68
2022-10-11T07:26:40.805Z,10.96
2022-10-11T07:29:09.423Z,11.11
2022-10-11T07:31:38.187Z,11.30
2022-10-11T07:34:05.087Z,11.36
2022-10-11T07:36:31.846Z,11.57
2022-10-11T07:38:58.398Z,11.79
2022-10-11T07:41:24.890Z,12.31
2022-10-11T07:43:51.455Z,13.27
2022-10-11T07:46:18.786Z,14.07
2022-10-11T07:51:39.186Z,14.90
2022-10-11T07:54:07.379Z,15.39
2022-10-11T07:56:34.431Z,15.05
2022-10-11T07:59:03.561Z,14.71
2022-10-11T08:01:30.882Z,14.68
2022-10-11T08:03:58.050Z,15.30
2022-10-11T08:06:29.172Z,15.23
2022-10-11T08:08:56.932Z,14.70
2022-10-11T08:11:26.095Z,14.44
2022-10-11T08:13:52.752Z,14.48
2022-10-11T08:16:19.849Z,14.06
2022-10-11T08:18:46.369Z,13.32
2022-10-11T08:21:15.507Z,13.20
2022-10-11T08:23:42.112Z,12.92
2022-10-11T08:26:09.730Z,12.53
2022-10-11T08:28:37.072Z,12.54
2022-10-11T08:31:03.955Z,12.42
2022-10-11T08:33:31.073Z,12.30
2022-10-11T08:35:58.400Z,12.52
2022-10-11T08:38:24.934Z,13.61
2022-10-11T08:40:56.588Z,14.56
2022-10-11T08:43:44.674Z,15.79
2022-10-11T08:46:12.025Z,16.14
2022-10-11T08:48:41.893Z,16.88
2022-10-11T08:51:23.964Z,16.90
2022-10-11T08:54:12.801Z,16.62
2022-10-11T08:56:41.788Z,17.91
2022-10-11T09:01:38.884Z,17.39
2022-10-11T09:04:06.377Z,17.46
2022-10-11T09:06:50.636Z,18.08
2022-10-11T09:09:35.938Z,17.97
2022-10-11T09:17:46.022Z,17.24
2022-10-11T09:20:43.694Z,17.70
2022-10-11T09:23:26.869Z,17.18
2022-10-11T09:25:56.516Z,16.93
2022-10-11T09:28:41.809Z,16.87
2022-10-11T09:31:10.720Z,16.14
2022-10-11T09:33:41.520Z,16.17
2022-10-11T09:36:20.191Z,16.69
2022-10-11T09:38:52.585Z,16.88
2022-10-11T09:44:24.797Z,15.94
2022-10-11T09:54:28.054Z,15.66
2022-10-11T09:56:54.837Z,15.35
2022-10-11T09:59:34.759Z,15.50
2022-10-11T10:04:35.513Z,15.29
2022-10-11T10:09:38.610Z,15.40
2022-10-11T10:12:12.451Z,16.42
2022-10-11T10:17:14.654Z,16.96
2022-10-11T10:19:48.490Z,17.38
2022-10-11T10:22:21.573Z,18.29
2022-10-11T10:24:50.020Z,18.07
2022-10-11T10:30:21.951Z,17.79
2022-10-11T10:39:05.871Z,18.67
2022-10-11T10:41:32.543Z,18.97
2022-10-11T10:44:00.129Z,17.26
2022-10-11T10:46:38.926Z,17.00
2022-10-11T10:52:43.695Z,15.86
2022-10-11T10:55:13.128Z,15.62
2022-10-11T10:58:15.082Z,15.26
2022-10-11T11:00:49.516Z,15.28
2022-10-11T11:03:24.796Z,16.01
2022-10-11T11:06:06.990Z,16.69
2022-10-11T11:08:58.331Z,17.52
2022-10-11T11:11:43.607Z,18.19
2022-10-11T11:14:31.527Z,17.95
2022-10-11T11:17:12.893Z,17.88
2022-10-11T11:20:03.985Z,17.87
2022-10-11T11:22:49.280Z,17.80
2022-10-11T11:25:28.263Z,18.00
2022-10-11T11:28:19.034Z,18.22
2022-10-11T11:31:08.789Z,18.07
2022-10-11T11:33:44.065Z,18.18
2022-10-11T11:36:18.801Z,17.97
2022-10-11T11:38:50.734Z,18.38
2022-10-11T11:41:26.645Z,18.63
2022-10-11T11:44:16.550Z,19.00
2022-10-11T11:47:04.364Z,18.74
2022-10-11T11:49:38.357Z,19.20
2022-10-11T11:52:08.362Z,19.15
2022-10-11T11:54:44.323Z,19.14
2022-10-11T11:57:32.571Z,19.29
2022-10-11T12:00:06.897Z,19.02
2022-10-11T12:02:53.358Z,18.90
2022-10-11T12:05:24.121Z,18.87
2022-10-11T12:08:00.242Z,18.41
2022-10-11T12:10:31.407Z,18.38
2022-10-11T12:13:16.902Z,18.44
2022-10-11T12:16:02.187Z,18.59
2022-10-11T12:18:30.924Z,18.93
2022-10-11T12:21:07.308Z,18.91
2022-10-11T12:23:40.551Z,18.24
2022-10-11T12:26:28.871Z,18.50
2022-10-11T12:29:04.381Z,19.14
2022-10-11T12:31:34.186Z,19.55
2022-10-11T12:34:00.993Z,19.75
2022-10-11T12:36:45.013Z,19.29
2022-10-11T12:39:20.621Z,19.32
2022-10-11T12:41:47.374Z,19.32
2022-10-11T12:44:22.729Z,19.54
2022-10-11T12:46:55.024Z,18.70
2022-10-11T12:49:31.166Z,18.24
2022-10-11T12:52:00.917Z,18.41
2022-10-11T12:54:52.146Z,18.31
2022-10-11T12:57:46.317Z,17.68
2022-10-11T13:00:20.605Z,17.59
2022-10-11T13:02:48.696Z,17.19
2022-10-11T13:05:22.139Z,17.28
2022-10-11T13:07:49.749Z,17.11
2022-10-11T13:10:21.985Z,17.19
2022-10-11T13:12:49.107Z,17.11
2022-10-11T13:15:18.157Z,17.12
2022-10-11T13:17:44.810Z,17.02
2022-10-11T13:20:17.760Z,17.04
2022-10-11T13:22:47.500Z,17.10
2022-10-11T13:25:23.153Z,17.08
2022-10-11T13:27:50.595Z,17.06
2022-10-11T13:30:20.367Z,17.26
2022-10-11T13:32:46.961Z,17.12
2022-10-11T13:35:33.769Z,17.09
2022-10-11T13:38:01.944Z,17.12
2022-10-11T13:40:30.014Z,17.04
2022-10-11T13:42:56.764Z,16.92
2022-10-11T13:45:25.649Z,17.00
2022-10-11T13:47:53.671Z,17.03
2022-10-11T13:50:30.766Z,17.02
2022-10-11T13:53:20.500Z,16.89
2022-10-11T13:55:53.943Z,16.62
2022-10-11T13:58:32.309Z,16.34
2022-10-11T14:01:04.710Z,16.54
2022-10-11T14:03:39.580Z,16.45
2022-10-11T14:06:06.621Z,16.53
2022-10-11T14:08:38.131Z,16.48
2022-10-11T14:11:06.728Z,16.39
2022-10-11T14:13:43.679Z,16.73
2022-10-11T14:16:12.713Z,16.81
2022-10-11T14:19:07.625Z,16.79
2022-10-11T14:21:34.564Z,16.69
2022-10-11T14:24:10.656Z,16.53
2022-10-11T14:26:42.049Z,16.75
2022-10-11T14:29:13.830Z,16.85
2022-10-11T14:31:42.156Z,16.72
2022-10-11T14:34:15.021Z,16.63
2022-10-11T14:36:41.700Z,16.48
2022-10-11T14:39:15.243Z,16.49
2022-10-11T14:41:41.902Z,16.45
2022-10-11T14:44:08.466Z,16.36
2022-10-11T14:46:38.887Z,16.49
2022-10-11T14:49:20.221Z,16.56
2022-10-11T14:51:48.308Z,16.55
2022-10-11T14:54:15.949Z,16.56
2022-10-11T14:56:42.708Z,16.43
2022-10-11T14:59:13.871Z,16.44
2022-10-11T15:01:40.776Z,16.50
2022-10-11T15:04:07.290Z,16.40
2022-10-11T15:06:37.783Z,16.33
2022-10-11T15:09:05.442Z,16.43
2022-10-11T15:11:32.162Z,16.34
2022-10-11T15:13:58.834Z,16.36
2022-10-11T15:16:26.873Z,16.29
2022-10-11T15:18:53.407Z,16.11
2022-10-11T15:21:24.645Z,16.09
2022-10-11T15:23:54.181Z,16.08
2022-10-11T15:26:24.292Z,16.13
2022-10-11T15:28:51.682Z,16.14
2022-10-11T15:31:18.378Z,16.29
2022-10-11T15:33:44.926Z,16.76
2022-10-11T15:36:17.239Z,17.71
2022-10-11T15:38:44.858Z,18.33
2022-10-11T15:43:42.090Z,19.35
2022-10-11T15:46:09.982Z,19.24
2022-10-11T15:48:37.940Z,18.72
2022-10-11T15:51:04.541Z,18.23
2022-10-11T15:56:04.582Z,17.21
2022-10-11T15:58:36.864Z,16.89
2022-10-11T16:01:09.781Z,16.54
2022-10-11T16:03:36.438Z,16.31
2022-10-11T16:06:05.384Z,16.02
2022-10-11T16:08:32.758Z,15.78
2022-10-11T16:10:59.341Z,15.57
2022-10-11T16:13:25.910Z,15.44
2022-10-11T16:15:52.650Z,15.42
2022-10-11T16:18:21.013Z,15.22
2022-10-11T16:20:48.961Z,15.18
2022-10-11T16:23:15.857Z,15.10
2022-10-11T16:25:42.457Z,15.07
2022-10-11T16:28:09.621Z,15.02
2022-10-11T16:30:40.988Z,14.88
2022-10-11T16:33:07.545Z,14.77
2022-10-11T16:35:34.154Z,14.73
2022-10-11T16:38:01.226Z,14.69
2022-10-11T16:40:29.823Z,14.61
2022-10-11T16:42:56.308Z,14.53
2022-10-11T16:45:22.931Z,14.41
2022-10-11T16:47:49.638Z,14.33
2022-10-11T16:50:16.202Z,14.33
2022-10-11T16:52:42.772Z,14.21
2022-10-11T16:55:09.580Z,14.15
2022-10-11T16:57:37.726Z,14.05
2022-10-11T17:00:09.202Z,13.89
2022-10-11T17:02:36.582Z,13.86
2022-10-11T17:05:03.947Z,13.78
2022-10-11T17:07:30.515Z,13.67
2022-10-11T17:12:24.056Z,13.45
2022-10-11T17:14:51.073Z,13.40
2022-10-11T17:17:18.736Z,13.26
2022-10-11T17:19:47.298Z,13.21
2022-10-11T17:22:18.691Z,13.21
2022-10-11T17:27:11.221Z,13.04
2022-10-11T17:29:38.417Z,12.92
2022-10-11T17:32:05.114Z,12.85
2022-10-11T17:34:31.838Z,12.82
2022-10-11T17:36:58.310Z,12.82
2022-10-11T17:39:25.852Z,12.80
2022-10-11T17:41:52.746Z,12.78
2022-10-11T17:44:19.823Z,12.73
2022-10-11T17:46:46.701Z,12.69
2022-10-11T17:49:13.907Z,12.66
2022-10-11T17:51:41.655Z,12.62
2022-10-11T17:56:39.461Z,12.51
2022-10-11T17:59:06.292Z,12.43
2022-10-11T18:01:32.895Z,12.41
2022-10-11T18:04:01.465Z,12.36
2022-10-11T18:06:31.084Z,12.37
2022-10-11T18:09:00.428Z,12.37
2022-10-11T18:11:27.007Z,12.41
2022-10-11T18:13:53.815Z,12.42
2022-10-11T18:16:23.267Z,12.39
2022-10-11T18:18:50.304Z,12.39
2022-10-11T18:23:43.847Z,12.38
2022-10-11T18:26:16.161Z,12.38
2022-10-11T18:31:13.340Z,12.29
2022-10-11T18:33:40.688Z,12.28
2022-10-11T18:36:08.329Z,12.28
2022-10-11T18:38:35.216Z,12.26
2022-10-11T18:41:09.478Z,12.23
2022-10-11T18:43:36.923Z,12.14
2022-10-11T18:48:41.716Z,12.05
2022-10-11T18:51:11.187Z,12.03
2022-10-11T18:53:37.913Z,12.02
2022-10-11T18:56:06.959Z,11.96
2022-10-11T18:58:35.149Z,11.93
2022-10-11T19:01:09.541Z,11.85
2022-10-11T19:03:36.405Z,11.76
2022-10-11T19:06:05.542Z,11.71
2022-10-11T19:08:32.705Z,11.66
2022-10-11T19:11:09.747Z,11.62
2022-10-11T19:13:36.900Z,11.58
2022-10-11T19:16:11.917Z,11.55
2022-10-11T19:18:43.868Z,11.52
2022-10-11T19:21:12.726Z,11.48
2022-10-11T19:23:41.620Z,11.41
2022-10-11T19:26:14.114Z,11.37
2022-10-11T19:28:41.046Z,11.31
2022-10-11T19:31:09.927Z,11.27
2022-10-11T19:33:36.754Z,11.24
2022-10-11T19:36:05.287Z,11.17
2022-10-11T19:38:33.438Z,11.10
2022-10-11T19:41:00.978Z,11.03
2022-10-11T19:43:27.897Z,10.99
2022-10-11T19:46:08.506Z,10.96
2022-10-11T19:48:39.186Z,10.96
2022-10-11T19:51:11.697Z,10.89
2022-10-11T19:53:38.460Z,10.81
2022-10-11T19:56:08.437Z,10.72
2022-10-11T19:58:35.238Z,10.66
2022-10-11T20:01:05.015Z,10.57
2022-10-11T20:03:32.025Z,10.51
2022-10-11T20:06:00.371Z,10.44
2022-10-11T20:08:28.487Z,10.37
2022-10-11T20:10:55.059Z,10.30
2022-10-11T20:13:21.582Z,10.25
2022-10-11T20:15:48.072Z,10.22
2022-10-11T20:18:14.614Z,10.20
2022-10-11T20:20:54.567Z,10.18
2022-10-11T20:23:25.201Z,10.09
2022-10-11T20:26:04.176Z,10.02
2022-10-11T20:28:32.064Z,9.99
2022-10-11T20:31:00.233Z,9.98
2022-10-11T20:33:28.602Z,9.97
2022-10-11T20:36:07.718Z,9.96
2022-10-11T20:38:36.339Z,9.91
2022-10-11T20:41:14.456Z,9.89
2022-10-11T20:43:49.766Z,9.87
2022-10-11T20:46:16.966Z,9.80
2022-10-11T20:48:53.337Z,9.79
2022-10-11T20:51:23.280Z,9.79
2022-10-11T20:53:50.339Z,9.78
2022-10-11T20:56:18.678Z,9.80
2022-10-11T20:58:46.118Z,9.79
2022-10-11T21:01:17.646Z,9.77
2022-10-11T21:03:44.491Z,9.78
2022-10-11T21:06:11.676Z,9.78
2022-10-11T21:08:39.394Z,9.76
2022-10-11T21:11:07.334Z,9.76
2022-10-11T21:13:34.211Z,9.75
2022-10-11T21:16:10.799Z,9.74
2022-10-11T21:18:37.357Z,9.71
2022-10-11T21:21:11.897Z,9.65
2022-10-11T21:23:38.689Z,9.62
2022-10-11T21:26:07.744Z,9.58
2022-10-11T21:28:34.357Z,9.57
2022-10-11T21:31:08.752Z,9.54
2022-10-11T21:33:36.077Z,9.53
2022-10-11T21:36:10.295Z,9.57
2022-10-11T21:38:37.132Z,9.60
2022-10-11T21:41:07.721Z,9.62
2022-10-11T21:43:35.714Z,9.60
2022-10-11T21:46:13.910Z,9.60
2022-10-11T21:48:40.813Z,9.56
2022-10-11T21:53:46.789Z,9.53
2022-10-11T21:56:13.426Z,9.50
2022-10-11T21:58:39.979Z,9.47
2022-10-11T22:01:06.641Z,9.42
2022-10-11T22:03:33.185Z,9.37
2022-10-11T22:06:02.464Z,9.30
2022-10-11T22:08:29.556Z,9.27
2022-10-11T22:10:57.824Z,9.23
2022-10-11T22:13:25.236Z,9.18
2022-10-11T22:15:51.719Z,9.22
2022-10-11T22:18:18.398Z,9.19
2022-10-11T22:20:45.348Z,9.13
2022-10-11T22:23:11.858Z,9.06
2022-10-11T22:25:39.231Z,9.03
2022-10-11T22:28:06.248Z,9.01
2022-10-11T22:30:33.110Z,8.99
2022-10-11T22:32:59.611Z,8.99
2022-10-11T22:35:26.103Z,8.95
2022-10-11T22:37:52.714Z,8.95
2022-10-11T22:40:19.832Z,8.93
2022-10-11T22:42:46.630Z,8.92
2022-10-11T22:45:13.155Z,8.90
2022-10-11T22:47:39.615Z,8.90
2022-10-11T22:50:06.377Z,8.91
2022-10-11T22:52:32.857Z,9.03
2022-10-11T22:54:59.648Z,8.93
2022-10-11T22:57:26.169Z,8.88
2022-10-11T22:59:52.683Z,8.80
2022-10-11T23:02:19.158Z,8.81
2022-10-11T23:04:45.656Z,8.75
2022-10-11T23:07:12.120Z,8.66
2022-10-11T23:09:38.569Z,8.66
2022-10-11T23:12:05.221Z,8.62
2022-10-11T23:14:31.751Z,8.60
2022-10-11T23:16:58.221Z,8.58
2022-10-11T23:19:24.714Z,8.55
2022-10-11T23:21:51.191Z,8.53
2022-10-11T23:24:17.765Z,8.52
2022-10-11T23:26:44.352Z,8.48
2022-10-11T23:29:10.910Z,8.46
2022-10-11T23:31:37.386Z,8.42
2022-10-11T23:34:03.916Z,8.39
2022-10-11T23:36:30.634Z,8.36
2022-10-11T23:38:58.694Z,8.23
2022-10-11T23:41:27.375Z,8.15
2022-10-11T23:43:54.236Z,8.09
2022-10-11T23:46:21.191Z,8.03
2022-10-11T23:48:47.802Z,7.98
2022-10-11T23:51:14.480Z,7.97
2022-10-11T23:53:41.008Z,7.95
2022-10-11T23:56:09.800Z,7.91
2022-10-11T23:58:36.638Z,7.84
